createdAt,value
2023-02-15T00:01:01.961Z,22.2
2023-02-15T00:02:42.341Z,20.4
2023-02-15T00:04:22.711Z,20.4
2023-02-15T00:06:03.366Z,20.4
2023-02-15T00:07:43.394Z,20.4
2023-02-15T00:09:23.816Z,20.4
2023-02-15T00:11:04.184Z,22.3
2023-02-15T00:12:44.554Z,22.3
2023-02-15T00:14:24.883Z,22.3
2023-02-15T00:16:05.244Z,22.3
2023-02-15T00:17:45.460Z,22.3
2023-02-15T00:19:25.888Z,22.3
2023-02-15T00:21:06.268Z,22.3
2023-02-15T00:22:46.651Z,17.8
2023-02-15T00:24:27.172Z,17.8
2023-02-15T00:26:07.502Z,17.8
2023-02-15T00:27:47.995Z,17.8
2023-02-15T00:29:28.377Z,17.8
2023-02-15T00:31:08.877Z,17.8
2023-02-15T00:32:49.195Z,16.8
2023-02-15T00:34:29.606Z,16.8
2023-02-15T00:36:10.015Z,16.8
2023-02-15T00:37:50.549Z,16.8
2023-02-15T00:39:31.045Z,16.8
2023-02-15T00:41:11.500Z,16.8
2023-02-15T00:42:51.965Z,18
2023-02-15T00:44:32.261Z,18
2023-02-15T00:46:12.609Z,18
2023-02-15T00:47:52.945Z,18
2023-02-15T00:49:33.470Z,18
2023-02-15T00:51:13.965Z,18
2023-02-15T00:52:54.464Z,16.3
2023-02-15T00:54:34.934Z,16.3
2023-02-15T00:56:15.394Z,16.3
2023-02-15T00:57:55.905Z,16.3
2023-02-15T00:59:36.386Z,16.3
2023-02-15T01:01:16.918Z,16.3
2023-02-15T01:02:57.417Z,16.1
2023-02-15T01:04:37.858Z,16.1
2023-02-15T01:06:18.141Z,16.1
2023-02-15T01:07:58.679Z,16.1
2023-02-15T01:09:39.182Z,16.1
2023-02-15T01:11:19.687Z,16.1
2023-02-15T01:13:00.223Z,14.5
2023-02-15T01:14:40.670Z,14.5
2023-02-15T01:16:21.237Z,14.5
2023-02-15T01:18:01.686Z,14.5
2023-02-15T01:19:42.129Z,14.5
2023-02-15T01:21:22.483Z,14.5
2023-02-15T01:23:03.001Z,21.7
2023-02-15T01:24:43.529Z,21.7
2023-02-15T01:28:04.561Z,21.7
2023-02-15T01:29:45.099Z,21.7
2023-02-15T01:31:25.871Z,21.7
2023-02-15T01:33:06.210Z,14.3
2023-02-15T01:34:46.682Z,14.3
2023-02-15T01:36:27.165Z,14.3
2023-02-15T01:38:07.636Z,14.3
2023-02-15T01:39:48.081Z,14.3
2023-02-15T01:41:28.510Z,14.3
2023-02-15T01:43:08.966Z,18.5
2023-02-15T01:44:49.264Z,18.5
2023-02-15T01:46:29.804Z,18.5
2023-02-15T01:48:10.226Z,18.5
2023-02-15T01:49:50.733Z,18.5
2023-02-15T01:51:31.172Z,18.5
2023-02-15T01:53:11.673Z,20.8
2023-02-15T01:54:52.141Z,20.8
2023-02-15T01:56:32.581Z,20.8
2023-02-15T01:58:13.067Z,20.8
2023-02-15T01:59:53.526Z,20.8
2023-02-15T02:01:34.062Z,20.8
2023-02-15T02:03:14.505Z,27.1
2023-02-15T02:04:55.000Z,27.1
2023-02-15T02:06:35.400Z,27.1
2023-02-15T02:08:15.770Z,27.1
2023-02-15T02:09:56.103Z,27.1
2023-02-15T02:11:36.367Z,27.1
2023-02-15T02:13:16.813Z,18
2023-02-15T02:14:57.311Z,18
2023-02-15T02:16:37.736Z,18
2023-02-15T02:18:18.132Z,18
2023-02-15T02:19:58.619Z,18
2023-02-15T02:21:39.119Z,18
2023-02-15T02:23:19.653Z,17.4
2023-02-15T02:25:00.159Z,17.4
2023-02-15T02:26:40.588Z,17.4
2023-02-15T02:28:21.029Z,17.4
2023-02-15T02:30:01.516Z,17.4
2023-02-15T02:31:42.081Z,17.4
2023-02-15T02:33:22.413Z,16.9
2023-02-15T02:35:02.700Z,16.9
2023-02-15T02:38:23.470Z,16.9
2023-02-15T02:40:03.947Z,16.9
2023-02-15T02:41:44.412Z,16.9
2023-02-15T02:43:24.952Z,17.9
2023-02-15T02:45:05.347Z,17.9
2023-02-15T02:46:45.834Z,17.9
2023-02-15T02:48:26.284Z,17.9
2023-02-15T02:50:06.721Z,17.9
2023-02-15T02:51:47.186Z,17.9
2023-02-15T02:53:27.670Z,23.4
2023-02-15T02:55:08.044Z,23.4
2023-02-15T02:56:48.514Z,23.4
2023-02-15T02:58:28.930Z,23.4
2023-02-15T03:00:09.320Z,23.4
2023-02-15T03:01:49.894Z,23.4
2023-02-15T03:03:30.334Z,16.7
2023-02-15T03:05:10.811Z,16.7
2023-02-15T03:06:51.288Z,16.7
2023-02-15T03:08:31.759Z,16.7
2023-02-15T03:10:12.133Z,16.7
2023-02-15T03:11:52.559Z,16.7
2023-02-15T03:13:33.047Z,15.1
2023-02-15T03:15:13.493Z,15.1
2023-02-15T03:16:53.964Z,15.1
2023-02-15T03:18:34.551Z,15.1
2023-02-15T03:20:14.830Z,15.1
2023-02-15T03:21:55.125Z,15.1
2023-02-15T03:23:35.617Z,15.1
2023-02-15T03:25:16.181Z,18.8
2023-02-15T03:26:56.609Z,18.8
2023-02-15T03:28:37.119Z,18.8
2023-02-15T03:30:17.593Z,18.8
2023-02-15T03:31:58.219Z,18.8
2023-02-15T03:33:38.618Z,14.2
2023-02-15T03:35:19.060Z,14.2
2023-02-15T03:36:59.543Z,14.2
2023-02-15T03:38:40.064Z,14.2
2023-02-15T03:40:20.567Z,14.2
2023-02-15T03:42:00.929Z,14.2
2023-02-15T03:43:41.250Z,14.2
2023-02-15T03:47:02.241Z,13
2023-02-15T03:48:42.759Z,13
2023-02-15T03:50:23.235Z,13
2023-02-15T03:52:03.761Z,13
2023-02-15T03:53:44.258Z,13
2023-02-15T03:55:24.714Z,11.9
2023-02-15T03:57:05.176Z,11.9
2023-02-15T03:58:45.652Z,11.9
2023-02-15T04:00:26.162Z,11.9
2023-02-15T04:02:06.661Z,11.9
2023-02-15T04:03:47.013Z,11.9
2023-02-15T04:05:27.442Z,10.2
2023-02-15T04:07:07.948Z,10.2
2023-02-15T04:08:48.413Z,10.2
2023-02-15T04:10:28.898Z,10.2
2023-02-15T04:12:09.401Z,10.2
2023-02-15T04:13:49.950Z,10.2
2023-02-15T04:15:30.405Z,8.7
2023-02-15T04:17:11.042Z,8.7
2023-02-15T04:18:51.324Z,8.7
2023-02-15T04:20:31.798Z,8.7
2023-02-15T04:22:12.323Z,8.7
2023-02-15T04:23:52.680Z,8.7
2023-02-15T04:25:33.007Z,13.2
2023-02-15T04:27:13.297Z,13.2
2023-02-15T04:28:53.808Z,13.2
2023-02-15T04:30:34.282Z,13.2
2023-02-15T04:32:14.869Z,13.2
2023-02-15T04:33:55.307Z,13.2
2023-02-15T04:35:35.844Z,9.5
2023-02-15T04:37:16.367Z,9.5
2023-02-15T04:38:56.859Z,9.5
2023-02-15T04:40:37.268Z,9.5
2023-02-15T04:42:17.774Z,9.5
2023-02-15T04:43:58.246Z,9.5
2023-02-15T04:45:38.812Z,12.2
2023-02-15T04:47:19.171Z,12.2
2023-02-15T04:48:59.672Z,12.2
2023-02-15T04:50:40.149Z,12.2
2023-02-15T04:52:20.539Z,12.2
2023-02-15T04:54:01.033Z,12.2
2023-02-15T04:55:41.528Z,14.3
2023-02-15T04:57:22.015Z,14.3
2023-02-15T04:59:02.458Z,14.3
2023-02-15T05:00:42.937Z,14.3
2023-02-15T05:02:23.242Z,14.3
2023-02-15T05:04:03.727Z,14.3
2023-02-15T05:05:44.127Z,11.5
2023-02-15T05:07:24.427Z,11.5
2023-02-15T05:09:04.733Z,11.5
2023-02-15T05:10:45.098Z,11.5
2023-02-15T05:12:25.506Z,11.5
2023-02-15T05:14:05.983Z,11.5
2023-02-15T05:15:46.447Z,11.8
2023-02-15T05:17:26.984Z,11.8
2023-02-15T05:19:07.511Z,11.8
2023-02-15T05:20:48.018Z,11.8
2023-02-15T05:22:28.535Z,11.8
2023-02-15T05:24:09.045Z,11.8
2023-02-15T05:25:49.462Z,11.1
2023-02-15T05:27:29.940Z,11.1
2023-02-15T05:29:10.336Z,11.1
2023-02-15T05:30:50.904Z,11.1
2023-02-15T05:32:31.414Z,11.1
2023-02-15T05:34:11.610Z,11.1
2023-02-15T05:35:52.132Z,11.5
2023-02-15T05:37:32.547Z,11.5
2023-02-15T05:39:13.365Z,11.5
2023-02-15T05:40:53.492Z,11.5
2023-02-15T05:42:33.909Z,11.5
2023-02-15T05:44:14.405Z,11.5
2023-02-15T05:45:54.841Z,15.3
2023-02-15T05:47:35.225Z,15.3
2023-02-15T05:49:15.736Z,15.3
2023-02-15T05:50:56.208Z,15.3
2023-02-15T05:52:36.617Z,15.3
2023-02-15T05:54:17.127Z,15.3
2023-02-15T05:55:57.545Z,13.4
2023-02-15T05:57:38.083Z,13.4
2023-02-15T05:59:18.550Z,13.4
2023-02-15T06:00:59.049Z,13.4
2023-02-15T06:02:39.540Z,13.4
2023-02-15T06:04:20.061Z,13.4
2023-02-15T06:06:00.925Z,13
2023-02-15T06:07:40.882Z,13
2023-02-15T06:09:21.323Z,13
2023-02-15T06:11:01.834Z,13
2023-02-15T06:12:42.233Z,13
2023-02-15T06:14:22.676Z,13
2023-02-15T06:16:03.506Z,13.3
2023-02-15T06:17:43.537Z,13.3
2023-02-15T06:19:23.967Z,13.3
2023-02-15T06:21:04.527Z,13.3
2023-02-15T06:22:44.926Z,13.3
2023-02-15T06:24:25.547Z,13.3
2023-02-15T06:26:05.958Z,11
2023-02-15T06:27:46.661Z,11
2023-02-15T06:29:26.897Z,11
2023-02-15T06:31:07.526Z,11
2023-02-15T06:32:47.849Z,11
2023-02-15T06:34:28.237Z,11
2023-02-15T06:36:08.736Z,13.4
2023-02-15T06:37:49.250Z,13.4
2023-02-15T06:39:29.690Z,13.4
2023-02-15T06:41:10.223Z,13.4
2023-02-15T06:42:50.822Z,13.4
2023-02-15T06:44:31.194Z,13.4
2023-02-15T06:46:11.884Z,11.2
2023-02-15T06:47:52.199Z,11.2
2023-02-15T06:49:32.648Z,11.2
2023-02-15T06:51:13.142Z,11.2
2023-02-15T06:52:53.511Z,11.2
2023-02-15T06:54:33.836Z,11.2
2023-02-15T06:56:14.331Z,12.1
2023-02-15T06:57:54.461Z,12.1
2023-02-15T06:59:34.781Z,12.1
2023-02-15T07:01:15.261Z,12.1
2023-02-15T07:02:55.760Z,12.1
2023-02-15T07:04:36.273Z,12.1
2023-02-15T07:06:16.652Z,12.8
2023-02-15T07:07:57.240Z,12.8
2023-02-15T07:09:37.657Z,12.8
2023-02-15T07:11:18.124Z,12.8
2023-02-15T07:12:58.670Z,12.8
2023-02-15T07:14:39.092Z,12.8
2023-02-15T07:16:19.636Z,12.8
2023-02-15T07:18:00.158Z,8.7
2023-02-15T07:19:40.713Z,8.7
2023-02-15T07:21:21.242Z,8.7
2023-02-15T07:23:01.702Z,8.7
2023-02-15T07:24:42.185Z,8.7
2023-02-15T07:26:22.633Z,8.7
2023-02-15T07:28:03.082Z,8.8
2023-02-15T07:29:43.587Z,8.8
2023-02-15T07:31:24.071Z,8.8
2023-02-15T07:33:05.646Z,8.8
2023-02-15T07:34:45.094Z,8.8
2023-02-15T07:36:25.482Z,8.8
2023-02-15T07:38:05.800Z,14.5
2023-02-15T07:41:26.716Z,14.5
2023-02-15T07:43:06.953Z,14.5
2023-02-15T07:44:47.467Z,14.5
2023-02-15T07:46:28.088Z,14.5
2023-02-15T07:48:08.463Z,13.4
2023-02-15T07:49:48.939Z,13.4
2023-02-15T07:51:29.453Z,13.4
2023-02-15T07:53:09.898Z,13.4
2023-02-15T07:54:50.397Z,13.4
2023-02-15T07:56:33.272Z,13.4
2023-02-15T07:58:11.389Z,14.4
2023-02-15T07:59:51.713Z,14.4
2023-02-15T08:01:32.232Z,14.4
2023-02-15T08:03:12.916Z,14.4
2023-02-15T08:04:53.142Z,14.4
2023-02-15T08:06:33.673Z,14.4
2023-02-15T08:08:14.200Z,10.3
2023-02-15T08:09:54.639Z,10.3
2023-02-15T08:11:35.164Z,10.3
2023-02-15T08:13:15.701Z,10.3
2023-02-15T08:14:56.164Z,10.3
2023-02-15T08:16:36.794Z,10.3
2023-02-15T08:18:17.033Z,11.3
2023-02-15T08:19:57.466Z,11.3
2023-02-15T08:21:38.231Z,11.3
2023-02-15T08:23:18.546Z,11.3
2023-02-15T08:24:59.032Z,11.3
2023-02-15T08:26:41.899Z,11.3
2023-02-15T08:28:19.865Z,14
2023-02-15T08:30:00.413Z,14
2023-02-15T08:31:41.038Z,14
2023-02-15T08:33:21.350Z,14
2023-02-15T08:35:01.934Z,14
2023-02-15T08:36:42.324Z,14
2023-02-15T08:38:22.756Z,15.3
2023-02-15T08:40:03.344Z,15.3
2023-02-15T08:41:43.833Z,15.3
2023-02-15T08:43:24.360Z,15.3
2023-02-15T08:45:04.891Z,15.3
2023-02-15T08:46:45.186Z,15.3
2023-02-15T08:48:25.737Z,15.9
2023-02-15T08:50:06.229Z,15.9
2023-02-15T08:51:46.698Z,15.9
2023-02-15T08:53:30.254Z,15.9
2023-02-15T08:55:07.534Z,15.9
2023-02-15T08:56:47.943Z,15.9
2023-02-15T08:58:28.382Z,56.7
2023-02-15T09:00:08.871Z,56.7
2023-02-15T09:01:49.451Z,56.7
2023-02-15T09:03:29.761Z,56.7
2023-02-15T09:05:10.328Z,56.7
2023-02-15T09:06:50.783Z,56.7
2023-02-15T09:08:31.255Z,13.9
2023-02-15T09:10:11.687Z,13.9
2023-02-15T09:11:57.676Z,13.9
2023-02-15T09:13:32.711Z,13.9
2023-02-15T09:15:13.157Z,13.9
2023-02-15T09:16:53.633Z,13.9
2023-02-15T09:18:34.145Z,13
2023-02-15T09:20:14.589Z,13
2023-02-15T09:21:55.134Z,13
2023-02-15T09:23:35.554Z,13
2023-02-15T09:25:15.960Z,13
2023-02-15T09:26:56.315Z,13
2023-02-15T09:28:36.713Z,13
2023-02-15T09:30:17.363Z,13
2023-02-15T09:31:57.752Z,13
2023-02-15T09:33:38.197Z,13
2023-02-15T09:35:18.654Z,13
2023-02-15T09:36:59.131Z,13
2023-02-15T09:38:39.553Z,14.9
2023-02-15T09:40:20.001Z,14.9
2023-02-15T09:42:00.470Z,14.9
2023-02-15T09:43:40.914Z,14.9
2023-02-15T09:45:21.378Z,14.9
2023-02-15T09:47:01.850Z,14.9
2023-02-15T09:48:42.177Z,11.4
2023-02-15T09:50:22.451Z,11.4
2023-02-15T09:52:02.756Z,11.4
2023-02-15T09:53:43.015Z,11.4
2023-02-15T09:55:23.504Z,11.4
2023-02-15T09:57:03.932Z,11.4
2023-02-15T09:58:44.498Z,10.9
2023-02-15T10:00:24.905Z,10.9
2023-02-15T10:02:05.425Z,10.9
2023-02-15T10:03:45.897Z,10.9
2023-02-15T10:05:26.332Z,10.9
2023-02-15T10:07:06.729Z,10.9
2023-02-15T10:08:47.181Z,10.1
2023-02-15T10:10:27.743Z,10.1
2023-02-15T10:12:08.180Z,10.1
2023-02-15T10:13:48.596Z,10.1
2023-02-15T10:15:28.896Z,10.1
2023-02-15T10:17:09.397Z,10.1
2023-02-15T10:18:49.824Z,6.7
2023-02-15T10:20:30.229Z,6.7
2023-02-15T10:22:10.740Z,6.7
2023-02-15T10:23:51.273Z,6.7
2023-02-15T10:25:31.798Z,6.7
2023-02-15T10:27:12.186Z,6.7
2023-02-15T10:28:52.627Z,11.8
2023-02-15T10:30:33.122Z,11.8
2023-02-15T10:32:13.735Z,11.8
2023-02-15T10:33:53.956Z,11.8
2023-02-15T10:35:34.392Z,11.8
2023-02-15T10:37:14.754Z,11.8
2023-02-15T10:38:55.250Z,11.8
2023-02-15T10:40:35.694Z,10.9
2023-02-15T10:42:16.079Z,10.9
2023-02-15T10:43:56.552Z,10.9
2023-02-15T10:45:36.980Z,10.9
2023-02-15T10:47:17.486Z,10.9
2023-02-15T10:48:57.948Z,14.6
2023-02-15T10:50:38.345Z,14.6
2023-02-15T10:52:18.934Z,14.6
2023-02-15T10:53:59.235Z,14.6
2023-02-15T10:55:39.699Z,14.6
2023-02-15T10:57:20.162Z,14.6
2023-02-15T10:59:00.619Z,14.6
2023-02-15T11:00:40.939Z,11.1
2023-02-15T11:02:21.438Z,11.1
2023-02-15T11:04:01.846Z,11.1
2023-02-15T11:07:22.751Z,11.1
2023-02-15T11:09:03.169Z,11.1
2023-02-15T11:10:43.540Z,16.5
2023-02-15T11:12:23.973Z,16.5
2023-02-15T11:14:04.433Z,16.5
2023-02-15T11:15:44.997Z,16.5
2023-02-15T11:17:25.345Z,16.5
2023-02-15T11:19:05.876Z,16.5
2023-02-15T11:20:46.292Z,16
2023-02-15T11:22:26.703Z,16
2023-02-15T11:24:07.252Z,16
2023-02-15T11:25:47.781Z,16
2023-02-15T11:27:28.264Z,16
2023-02-15T11:29:08.652Z,16
2023-02-15T11:30:49.275Z,13.7
2023-02-15T11:32:29.657Z,13.7
2023-02-15T11:34:10.108Z,13.7
2023-02-15T11:35:50.611Z,13.7
2023-02-15T11:37:31.075Z,13.7
2023-02-15T11:39:11.558Z,13.7
2023-02-15T11:40:52.214Z,10.5
2023-02-15T11:42:32.342Z,10.5
2023-02-15T11:44:12.941Z,10.5
2023-02-15T11:45:53.448Z,10.5
2023-02-15T11:47:33.778Z,10.5
2023-02-15T11:49:14.242Z,10.5
2023-02-15T11:50:54.657Z,14.2
2023-02-15T11:52:35.131Z,14.2
2023-02-15T11:54:15.810Z,14.2
2023-02-15T11:55:56.156Z,14.2
2023-02-15T11:59:17.037Z,14.2
2023-02-15T12:00:57.486Z,10.1
2023-02-15T12:02:37.883Z,10.1
2023-02-15T12:04:18.377Z,10.1
2023-02-15T12:05:58.790Z,10.1
2023-02-15T12:07:39.105Z,10.1
2023-02-15T12:09:20.245Z,10.1
2023-02-15T12:11:00.285Z,14.4
2023-02-15T12:12:40.070Z,14.4
2023-02-15T12:14:20.550Z,14.4
2023-02-15T12:16:01.108Z,14.4
2023-02-15T12:17:41.507Z,14.4
2023-02-15T12:19:21.885Z,14.4
2023-02-15T12:21:02.605Z,11.2
2023-02-15T12:22:42.799Z,11.2
2023-02-15T12:24:23.228Z,11.2
2023-02-15T12:26:03.719Z,11.2
2023-02-15T12:27:44.121Z,11.2
2023-02-15T12:29:24.646Z,11.2
2023-02-15T12:31:05.619Z,9.3
2023-02-15T12:32:45.590Z,9.3
2023-02-15T12:34:25.881Z,9.3
2023-02-15T12:36:06.194Z,9.3
2023-02-15T12:37:46.640Z,9.3
2023-02-15T12:39:27.101Z,9.3
2023-02-15T12:41:07.628Z,10.35
2023-02-15T12:42:47.980Z,10.35
2023-02-15T12:44:28.410Z,10.35
2023-02-15T12:46:08.875Z,10.35
2023-02-15T12:47:49.419Z,10.35
2023-02-15T12:49:29.975Z,10.35
2023-02-15T12:51:10.928Z,12.3
2023-02-15T12:52:50.842Z,12.3
2023-02-15T12:54:31.392Z,12.3
2023-02-15T12:56:11.855Z,12.3
2023-02-15T12:57:52.283Z,12.3
2023-02-15T12:59:32.875Z,12.3
2023-02-15T13:01:13.438Z,11
2023-02-15T13:02:53.769Z,11
2023-02-15T13:04:34.247Z,11
2023-02-15T13:06:14.753Z,11
2023-02-15T13:07:55.224Z,11
2023-02-15T13:09:35.757Z,11
2023-02-15T13:11:16.228Z,12.4
2023-02-15T13:12:56.857Z,12.4
2023-02-15T13:14:37.209Z,12.4
2023-02-15T13:16:17.780Z,12.4
2023-02-15T13:17:58.296Z,12.4
2023-02-15T13:19:38.793Z,12.4
2023-02-15T13:21:19.194Z,11.7
2023-02-15T13:22:59.706Z,11.7
2023-02-15T13:24:40.134Z,11.7
2023-02-15T13:26:20.630Z,11.7
2023-02-15T13:28:01.157Z,11.7
2023-02-15T13:29:41.557Z,11.7
2023-02-15T13:31:22.123Z,12.5
2023-02-15T13:33:02.515Z,12.5
2023-02-15T13:34:43.009Z,12.5
2023-02-15T13:36:23.574Z,12.5
2023-02-15T13:38:04.064Z,12.5
2023-02-15T13:39:44.344Z,12.5
2023-02-15T13:41:24.899Z,10.7
2023-02-15T13:43:05.311Z,10.7
2023-02-15T13:44:45.744Z,10.7
2023-02-15T13:46:26.322Z,10.7
2023-02-15T13:48:06.669Z,10.7
2023-02-15T13:49:47.184Z,10.7
2023-02-15T13:51:27.698Z,16
2023-02-15T13:53:08.199Z,16
2023-02-15T13:54:48.628Z,16
2023-02-15T13:56:29.086Z,16
2023-02-15T13:58:09.586Z,16
2023-02-15T13:59:50.100Z,16
2023-02-15T14:01:30.782Z,10
2023-02-15T14:03:11.149Z,10
2023-02-15T14:04:51.526Z,10
2023-02-15T14:06:32.069Z,10
2023-02-15T14:08:14.512Z,10
2023-02-15T14:08:14.546Z,10
2023-02-15T14:08:14.556Z,10
2023-02-15T14:09:52.903Z,10
2023-02-15T14:11:33.196Z,12.3
2023-02-15T14:13:13.592Z,12.3
2023-02-15T14:14:54.017Z,12.3
2023-02-15T14:16:34.902Z,12.3
2023-02-15T14:18:14.957Z,12.3
2023-02-15T14:19:55.466Z,12.3
2023-02-15T14:21:35.886Z,17.1
2023-02-15T14:23:16.375Z,17.1
2023-02-15T14:24:56.862Z,17.1
2023-02-15T14:26:37.389Z,17.1
2023-02-15T14:28:17.940Z,17.1
2023-02-15T14:29:58.497Z,17.1
2023-02-15T14:31:38.912Z,13.5
2023-02-15T14:33:19.231Z,13.5
2023-02-15T14:34:59.961Z,13.5
2023-02-15T14:36:40.170Z,13.5
2023-02-15T14:38:20.627Z,13.5
2023-02-15T14:40:01.152Z,13.5
2023-02-15T14:41:41.630Z,9
2023-02-15T14:43:22.066Z,9
2023-02-15T14:45:02.495Z,9
2023-02-15T14:46:42.975Z,9
2023-02-15T14:48:23.503Z,9
2023-02-15T14:50:04.131Z,9
2023-02-15T14:51:44.406Z,8.5
2023-02-15T14:53:24.943Z,8.5
2023-02-15T14:55:05.548Z,8.5
2023-02-15T14:56:46.156Z,8.5
2023-02-15T14:58:26.523Z,8.5
2023-02-15T15:00:06.972Z,8.5
2023-02-15T15:01:47.448Z,12.8
2023-02-15T15:03:27.947Z,12.8
2023-02-15T15:05:08.464Z,12.8
2023-02-15T15:06:48.950Z,12.8
2023-02-15T15:08:29.385Z,12.8
2023-02-15T15:10:10.082Z,12.8
2023-02-15T15:11:50.345Z,12.8
2023-02-15T15:13:30.819Z,12
2023-02-15T15:15:11.422Z,12
2023-02-15T15:16:51.847Z,12
2023-02-15T15:18:32.291Z,12
2023-02-15T15:20:12.764Z,12
2023-02-15T15:21:53.249Z,12
2023-02-15T15:23:33.680Z,13.3
2023-02-15T15:25:14.191Z,13.3
2023-02-15T15:26:54.586Z,13.3
2023-02-15T15:28:35.228Z,13.3
2023-02-15T15:30:15.693Z,13.3
2023-02-15T15:31:56.110Z,13.3
2023-02-15T15:35:16.922Z,16.4
2023-02-15T15:36:57.419Z,16.4
2023-02-15T15:38:37.903Z,16.4
2023-02-15T15:40:18.512Z,16.4
2023-02-15T15:42:02.066Z,16.4
2023-02-15T15:43:39.475Z,13
2023-02-15T15:45:19.975Z,13
2023-02-15T15:47:00.584Z,13
2023-02-15T15:48:40.961Z,13
2023-02-15T15:50:21.434Z,13
2023-02-15T15:52:01.902Z,13
2023-02-15T15:53:42.339Z,11.5
2023-02-15T15:55:22.780Z,11.5
2023-02-15T15:57:03.232Z,11.5
2023-02-15T15:58:43.736Z,11.5
2023-02-15T16:00:24.093Z,11.5
2023-02-15T16:02:04.618Z,11.5
2023-02-15T16:03:45.023Z,9.45
2023-02-15T16:05:25.488Z,9.45
2023-02-15T16:07:05.891Z,9.45
2023-02-15T16:08:46.305Z,9.45
2023-02-15T16:10:26.830Z,9.45
2023-02-15T16:12:07.140Z,9.45
2023-02-15T16:13:47.595Z,16.6
2023-02-15T16:15:27.936Z,16.6
2023-02-15T16:17:08.357Z,16.6
2023-02-15T16:18:48.704Z,16.6
2023-02-15T16:20:29.075Z,16.6
2023-02-15T16:22:12.568Z,16.6
2023-02-15T16:23:50.028Z,12.75
2023-02-15T16:25:30.507Z,12.75
2023-02-15T16:27:10.987Z,12.75
2023-02-15T16:28:51.414Z,12.75
2023-02-15T16:30:31.988Z,12.75
2023-02-15T16:32:12.398Z,12.75
2023-02-15T16:33:52.739Z,13.35
2023-02-15T16:35:33.288Z,13.35
2023-02-15T16:37:13.794Z,13.35
2023-02-15T16:38:54.290Z,13.35
2023-02-15T16:40:34.766Z,13.35
2023-02-15T16:42:15.219Z,13.35
2023-02-15T16:43:55.715Z,16
2023-02-15T16:45:36.132Z,16
2023-02-15T16:47:16.595Z,16
2023-02-15T16:48:57.095Z,16
2023-02-15T16:50:37.578Z,16
2023-02-15T16:52:18.044Z,16
2023-02-15T16:53:58.527Z,22.6
2023-02-15T16:55:39.017Z,22.6
2023-02-15T16:57:19.469Z,22.6
2023-02-15T16:58:59.997Z,22.6
2023-02-15T17:00:40.447Z,22.6
2023-02-15T17:02:49.463Z,22.6
2023-02-15T17:04:01.311Z,13.4
2023-02-15T17:05:41.757Z,13.4
2023-02-15T17:07:22.215Z,13.4
2023-02-15T17:09:02.608Z,13.4
2023-02-15T17:10:43.085Z,13.4
2023-02-15T17:12:23.524Z,13.4
2023-02-15T17:14:03.946Z,15.3
2023-02-15T17:15:44.419Z,15.3
2023-02-15T17:17:24.886Z,15.3
2023-02-15T17:19:05.367Z,15.3
2023-02-15T17:20:45.913Z,15.3
2023-02-15T17:22:26.420Z,15.3
2023-02-15T17:24:07.028Z,13.9
2023-02-15T17:25:47.551Z,13.9
2023-02-15T17:27:28.093Z,13.9
2023-02-15T17:29:08.530Z,13.9
2023-02-15T17:30:48.965Z,13.9
2023-02-15T17:32:29.678Z,13.9
2023-02-15T17:34:10.014Z,17.7
2023-02-15T17:35:50.450Z,17.7
2023-02-15T17:37:30.948Z,17.7
2023-02-15T17:39:12.355Z,17.7
2023-02-15T17:40:51.761Z,17.7
2023-02-15T17:42:32.128Z,17.7
2023-02-15T17:44:12.520Z,21.9
2023-02-15T17:45:53.043Z,21.9
2023-02-15T17:47:33.282Z,21.9
2023-02-15T17:49:13.732Z,21.9
2023-02-15T17:50:54.113Z,21.9
2023-02-15T17:52:34.506Z,21.9
2023-02-15T17:54:14.958Z,23
2023-02-15T17:55:55.434Z,23
2023-02-15T17:57:35.900Z,23
2023-02-15T17:59:16.342Z,23
2023-02-15T18:00:56.848Z,23
2023-02-15T18:02:37.229Z,23
2023-02-15T18:04:17.734Z,23.1
2023-02-15T18:05:58.177Z,23.1
2023-02-15T18:07:38.651Z,23.1
2023-02-15T18:09:19.161Z,23.1
2023-02-15T18:10:59.501Z,23.1
2023-02-15T18:12:39.806Z,23.1
2023-02-15T18:14:20.336Z,21.8
2023-02-15T18:16:00.803Z,21.8
2023-02-15T18:17:41.243Z,21.8
2023-02-15T18:19:21.709Z,21.8
2023-02-15T18:21:02.562Z,21.8
2023-02-15T18:22:42.683Z,21.8
2023-02-15T18:24:23.198Z,21.5
2023-02-15T18:26:03.730Z,21.5
2023-02-15T18:27:44.149Z,21.5
2023-02-15T18:29:24.524Z,21.5
2023-02-15T18:31:05.444Z,21.5
2023-02-15T18:32:45.373Z,21.5
2023-02-15T18:34:25.667Z,21.5
2023-02-15T18:36:06.021Z,24
2023-02-15T18:37:46.530Z,24
2023-02-15T18:39:26.990Z,24
2023-02-15T18:41:07.484Z,24
2023-02-15T18:42:48.035Z,24
2023-02-15T18:44:28.409Z,18.4
2023-02-15T18:46:08.854Z,18.4
2023-02-15T18:47:49.313Z,18.4
2023-02-15T18:49:29.757Z,18.4
2023-02-15T18:51:10.167Z,18.4
2023-02-15T18:52:50.640Z,18.4
2023-02-15T18:54:31.064Z,18.4
2023-02-15T18:56:11.530Z,19.2
2023-02-15T18:57:51.892Z,19.2
2023-02-15T18:59:32.373Z,19.2
2023-02-15T19:01:12.901Z,19.2
2023-02-15T19:02:53.326Z,19.2
2023-02-15T19:04:33.820Z,19.2
2023-02-15T19:06:14.283Z,22
2023-02-15T19:07:54.734Z,22
2023-02-15T19:09:35.130Z,22
2023-02-15T19:11:15.615Z,22
2023-02-15T19:12:56.158Z,22
2023-02-15T19:14:36.585Z,22
2023-02-15T19:16:17.052Z,30.4
2023-02-15T19:17:57.460Z,30.4
2023-02-15T19:19:37.866Z,30.4
2023-02-15T19:21:18.381Z,30.4
2023-02-15T19:22:58.815Z,30.4
2023-02-15T19:24:39.299Z,30.4
2023-02-15T19:26:19.788Z,20
2023-02-15T19:28:00.227Z,20
2023-02-15T19:29:40.767Z,20
2023-02-15T19:31:21.399Z,20
2023-02-15T19:33:01.719Z,20
2023-02-15T19:34:43.835Z,20
2023-02-15T19:36:22.505Z,25.1
2023-02-15T19:38:06.096Z,25.1
2023-02-15T19:39:43.502Z,25.1
2023-02-15T19:41:23.907Z,25.1
2023-02-15T19:43:04.456Z,25.1
2023-02-15T19:46:25.437Z,31.9
2023-02-15T19:48:05.832Z,31.9
2023-02-15T19:49:46.231Z,31.9
2023-02-15T19:51:26.598Z,31.9
2023-02-15T19:53:07.068Z,31.9
2023-02-15T19:54:47.552Z,31.9
2023-02-15T19:56:27.998Z,31
2023-02-15T19:58:08.513Z,31
2023-02-15T19:59:48.945Z,31
2023-02-15T20:01:32.546Z,31
2023-02-15T20:03:09.923Z,31
2023-02-15T20:04:50.425Z,31
2023-02-15T20:06:30.890Z,23.3
2023-02-15T20:08:11.307Z,23.3
2023-02-15T20:09:51.790Z,23.3
2023-02-15T20:11:32.267Z,23.3
2023-02-15T20:13:12.608Z,23.3
2023-02-15T20:14:52.978Z,23.3
2023-02-15T20:16:33.432Z,28.9
2023-02-15T20:18:13.896Z,28.9
2023-02-15T20:19:54.326Z,28.9
2023-02-15T20:21:34.870Z,28.9
2023-02-15T20:23:15.365Z,28.9
2023-02-15T20:24:55.762Z,28.9
2023-02-15T20:26:36.219Z,28.1
2023-02-15T20:28:16.697Z,28.1
2023-02-15T20:29:57.256Z,28.1
2023-02-15T20:31:37.749Z,28.1
2023-02-15T20:33:18.083Z,28.1
2023-02-15T20:34:58.521Z,28.1
2023-02-15T20:36:38.898Z,27.2
2023-02-15T20:38:19.252Z,27.2
2023-02-15T20:39:59.583Z,27.2
2023-02-15T20:41:39.868Z,27.2
2023-02-15T20:43:20.232Z,27.2
2023-02-15T20:45:00.695Z,27.2
2023-02-15T20:46:41.223Z,27.6
2023-02-15T20:48:21.502Z,27.6
2023-02-15T20:50:02.018Z,27.6
2023-02-15T20:51:42.528Z,27.6
2023-02-15T20:53:23.036Z,27.6
2023-02-15T20:55:03.512Z,27.6
2023-02-15T20:56:44.036Z,27.4
2023-02-15T20:58:24.478Z,27.4
2023-02-15T21:00:05.004Z,27.4
2023-02-15T21:01:45.618Z,27.4
2023-02-15T21:03:29.043Z,27.4
2023-02-15T21:05:06.308Z,27.4
2023-02-15T21:06:46.612Z,30.5
2023-02-15T21:08:27.058Z,30.5
2023-02-15T21:10:07.487Z,30.5
2023-02-15T21:11:48.016Z,30.5
2023-02-15T21:13:28.526Z,30.5
2023-02-15T21:15:09.003Z,30.5
2023-02-15T21:16:49.489Z,27.3
2023-02-15T21:18:31.116Z,27.3
2023-02-15T21:20:10.512Z,27.3
2023-02-15T21:21:50.974Z,27.3
2023-02-15T21:23:31.364Z,27.3
2023-02-15T21:25:11.838Z,27.3
2023-02-15T21:26:52.387Z,28
2023-02-15T21:28:32.703Z,28
2023-02-15T21:30:13.153Z,28
2023-02-15T21:31:53.805Z,28
2023-02-15T21:33:34.208Z,28
2023-02-15T21:35:14.768Z,28
2023-02-15T21:36:55.283Z,25.8
2023-02-15T21:38:35.798Z,25.8
2023-02-15T21:40:16.359Z,25.8
2023-02-15T21:41:56.849Z,25.8
2023-02-15T21:43:37.259Z,25.8
2023-02-15T21:45:17.777Z,25.8
2023-02-15T21:46:58.200Z,27.3
2023-02-15T21:48:38.672Z,27.3
2023-02-15T21:50:19.156Z,27.3
2023-02-15T21:51:59.643Z,27.3
2023-02-15T21:53:40.120Z,27.3
2023-02-15T21:55:20.642Z,27.3
2023-02-15T21:57:01.193Z,27.3
2023-02-15T21:58:41.600Z,27.1
2023-02-15T22:00:22.073Z,27.1
2023-02-15T22:02:02.523Z,27.1
2023-02-15T22:03:42.988Z,27.1
2023-02-15T22:05:23.376Z,27.1
2023-02-15T22:07:03.818Z,15.6
2023-02-15T22:08:44.208Z,15.6
2023-02-15T22:10:24.500Z,15.6
2023-02-15T22:12:04.814Z,15.6
2023-02-15T22:13:45.076Z,15.6
2023-02-15T22:15:25.392Z,15.6
2023-02-15T22:17:05.729Z,15.6
2023-02-15T22:18:46.047Z,21.7
2023-02-15T22:20:26.324Z,21.7
2023-02-15T22:22:06.623Z,21.7
2023-02-15T22:23:47.314Z,21.7
2023-02-15T22:25:27.569Z,21.7
2023-02-15T22:27:08.009Z,21.7
2023-02-15T22:28:48.488Z,27.4
2023-02-15T22:30:29.068Z,27.4
2023-02-15T22:32:09.651Z,27.4
2023-02-15T22:33:49.945Z,27.4
2023-02-15T22:35:30.294Z,27.4
2023-02-15T22:37:10.762Z,27.4
2023-02-15T22:38:51.290Z,34
2023-02-15T22:40:31.666Z,34
2023-02-15T22:42:12.185Z,34
2023-02-15T22:43:52.504Z,34